createdAt,value
2023-01-25T00:00:35.797Z,11.10
2023-01-25T00:03:03.878Z,12.50
2023-01-25T00:05:31.540Z,10.43
2023-01-25T00:07:59.531Z,11.07
2023-01-25T00:10:27.802Z,11.30
2023-01-25T00:12:57.006Z,10.07
2023-01-25T00:15:26.331Z,10.73
2023-01-25T00:17:53.966Z,9.43
2023-01-25T00:20:23.475Z,10.50
2023-01-25T00:26:30.890Z,10.80
2023-01-25T00:28:59.514Z,11.20
2023-01-25T00:31:39.286Z,10.93
2023-01-25T00:34:17.192Z,11.57
2023-01-25T00:36:46.154Z,11.33
2023-01-25T00:39:15.039Z,9.50
2023-01-25T00:41:42.735Z,10.13
2023-01-25T00:44:11.501Z,10.70
2023-01-25T00:46:40.566Z,10.93
2023-01-25T00:49:09.012Z,10.60
2023-01-25T00:51:36.640Z,10.07
2023-01-25T00:54:04.733Z,9.77
2023-01-25T00:56:32.374Z,9.40
2023-01-25T00:59:00.084Z,10.37
2023-01-25T01:01:28.250Z,10.30
2023-01-25T01:03:57.365Z,10.50
2023-01-25T01:06:25.794Z,11.00
2023-01-25T01:08:54.307Z,10.60
2023-01-25T01:11:23.325Z,10.40
2023-01-25T01:13:51.667Z,9.70
2023-01-25T01:16:19.751Z,10.53
2023-01-25T01:18:47.718Z,10.90
2023-01-25T01:21:16.685Z,11.50
2023-01-25T01:23:45.432Z,10.53
2023-01-25T01:26:15.797Z,10.43
2023-01-25T01:28:43.992Z,10.43
2023-01-25T01:31:14.913Z,9.53
2023-01-25T01:33:50.321Z,10.73
2023-01-25T01:36:22.661Z,12.07
2023-01-25T01:38:50.637Z,11.27
2023-01-25T01:41:19.145Z,12.33
2023-01-25T01:43:48.211Z,10.83
2023-01-25T01:46:22.634Z,10.73
2023-01-25T01:48:55.408Z,11.37
2023-01-25T01:51:37.579Z,11.40
2023-01-25T01:54:15.317Z,10.73
2023-01-25T01:56:50.177Z,11.40
2023-01-25T01:59:19.351Z,12.30
2023-01-25T02:01:48.382Z,11.50
2023-01-25T02:04:17.849Z,11.10
2023-01-25T02:06:49.558Z,10.90
2023-01-25T02:09:21.966Z,10.93
2023-01-25T02:11:51.958Z,11.90
2023-01-25T02:14:21.462Z,10.53
2023-01-25T02:16:49.258Z,11.40
2023-01-25T02:19:29.788Z,11.33
2023-01-25T02:22:01.278Z,9.83
2023-01-25T02:24:33.586Z,10.70
2023-01-25T02:27:03.404Z,11.33
2023-01-25T02:29:31.606Z,11.10
2023-01-25T02:32:05.701Z,11.23
2023-01-25T02:34:34.262Z,10.57
2023-01-25T02:37:02.296Z,11.27
2023-01-25T02:39:31.049Z,10.80
2023-01-25T02:41:59.396Z,11.40
2023-01-25T02:44:34.545Z,11.97
2023-01-25T02:47:04.939Z,12.43
2023-01-25T02:49:36.116Z,11.80
2023-01-25T02:52:05.965Z,11.07
2023-01-25T02:54:34.243Z,10.30
2023-01-25T02:57:05.671Z,10.40
2023-01-25T02:59:43.918Z,11.57
2023-01-25T03:02:14.175Z,10.80
2023-01-25T03:04:43.280Z,10.43
2023-01-25T03:07:11.945Z,10.57
2023-01-25T03:09:40.191Z,11.70
2023-01-25T03:12:08.307Z,11.10
2023-01-25T03:14:36.123Z,13.50
2023-01-25T03:17:05.526Z,10.73
2023-01-25T03:19:34.206Z,10.93
2023-01-25T03:22:02.882Z,9.70
2023-01-25T03:24:33.254Z,10.10
2023-01-25T03:27:17.750Z,10.13
2023-01-25T03:29:50.127Z,10.10
2023-01-25T03:32:23.831Z,10.37
2023-01-25T03:34:51.837Z,11.10
2023-01-25T03:37:21.215Z,10.20
2023-01-25T03:39:50.589Z,10.13
2023-01-25T03:42:21.475Z,9.80
2023-01-25T03:44:53.183Z,9.50
2023-01-25T03:47:21.812Z,10.70
2023-01-25T03:49:51.309Z,10.40
2023-01-25T03:52:20.485Z,10.50
2023-01-25T03:54:48.939Z,11.17
2023-01-25T03:57:16.946Z,11.17
2023-01-25T03:59:59.537Z,10.20
2023-01-25T04:02:28.506Z,9.03
2023-01-25T04:04:58.286Z,10.00
2023-01-25T04:07:27.146Z,11.43
2023-01-25T04:09:55.782Z,9.90
2023-01-25T04:12:25.054Z,10.10
2023-01-25T04:14:53.784Z,9.17
2023-01-25T04:17:23.888Z,9.60
2023-01-25T04:20:17.253Z,11.13
2023-01-25T04:22:45.644Z,9.83
2023-01-25T04:25:16.772Z,9.87
2023-01-25T04:27:51.360Z,10.27
2023-01-25T04:30:19.597Z,9.73
2023-01-25T04:32:49.718Z,9.50
2023-01-25T04:35:32.861Z,9.50
2023-01-25T04:38:03.343Z,9.47
2023-01-25T04:40:41.021Z,9.03
2023-01-25T04:43:09.240Z,8.37
2023-01-25T04:45:38.087Z,8.73
2023-01-25T04:48:13.759Z,8.97
2023-01-25T04:50:50.619Z,10.87
2023-01-25T04:53:22.451Z,8.43
2023-01-25T04:55:50.892Z,9.63
2023-01-25T04:58:19.476Z,9.27
2023-01-25T05:00:47.199Z,8.70
2023-01-25T05:03:15.039Z,9.53
2023-01-25T05:05:47.204Z,8.10
2023-01-25T05:08:20.746Z,10.10
2023-01-25T05:10:48.551Z,8.93
2023-01-25T05:13:40.439Z,9.40
2023-01-25T05:16:15.184Z,8.17
2023-01-25T05:18:48.815Z,10.33
2023-01-25T05:21:36.149Z,8.57
2023-01-25T05:24:06.902Z,8.57
2023-01-25T05:26:53.277Z,8.50
2023-01-25T05:29:21.607Z,9.90
2023-01-25T05:31:59.164Z,9.70
2023-01-25T05:34:27.696Z,8.33
2023-01-25T05:36:56.005Z,7.63
2023-01-25T05:39:25.172Z,7.87
2023-01-25T05:41:55.274Z,8.90
2023-01-25T05:44:25.202Z,7.57
2023-01-25T05:46:54.102Z,7.83
2023-01-25T05:49:23.039Z,8.67
2023-01-25T05:51:50.792Z,10.70
2023-01-25T05:54:20.612Z,7.47
2023-01-25T05:56:58.840Z,8.23
2023-01-25T05:59:26.647Z,8.60
2023-01-25T06:01:55.684Z,8.33
2023-01-25T06:04:23.547Z,7.87
2023-01-25T06:06:51.623Z,7.30
2023-01-25T06:09:19.983Z,7.53
2023-01-25T06:11:48.186Z,8.43
2023-01-25T06:14:17.375Z,7.67
2023-01-25T06:16:46.263Z,7.50
2023-01-25T06:19:38.520Z,7.60
2023-01-25T06:22:26.471Z,7.90
2023-01-25T06:24:54.528Z,8.13
2023-01-25T06:27:22.214Z,7.70
2023-01-25T06:29:51.182Z,6.63
2023-01-25T06:32:19.456Z,8.20
2023-01-25T06:34:47.787Z,9.07
2023-01-25T06:37:22.844Z,8.90
2023-01-25T06:39:51.992Z,8.43
2023-01-25T06:42:19.752Z,7.53
2023-01-25T06:44:47.859Z,6.43
2023-01-25T06:47:16.896Z,7.43
2023-01-25T06:49:45.330Z,7.80
2023-01-25T06:52:13.124Z,8.20
2023-01-25T06:54:41.624Z,7.80
2023-01-25T06:57:10.312Z,8.13
2023-01-25T06:59:38.025Z,8.30
2023-01-25T07:02:06.598Z,9.03
2023-01-25T07:04:35.973Z,8.00
2023-01-25T07:07:04.469Z,7.83
2023-01-25T07:09:32.113Z,7.97
2023-01-25T07:12:00.198Z,8.30
2023-01-25T07:14:27.831Z,8.70
2023-01-25T07:16:55.954Z,8.27
2023-01-25T07:19:23.768Z,8.83
2023-01-25T07:21:53.637Z,7.93
2023-01-25T07:24:21.563Z,8.30
2023-01-25T07:26:49.897Z,7.60
2023-01-25T07:29:18.269Z,7.13
2023-01-25T07:31:46.010Z,7.57
2023-01-25T07:34:14.392Z,8.13
2023-01-25T07:36:44.712Z,8.00
2023-01-25T07:39:14.497Z,8.53
2023-01-25T07:41:42.538Z,8.80
2023-01-25T07:44:14.164Z,9.20
2023-01-25T07:46:47.436Z,9.67
2023-01-25T07:49:15.604Z,9.40
2023-01-25T07:51:43.249Z,8.70
2023-01-25T07:54:13.520Z,10.00
2023-01-25T07:56:41.274Z,9.77
2023-01-25T07:59:12.003Z,10.53
2023-01-25T08:01:40.378Z,9.50
2023-01-25T08:04:09.120Z,8.90
2023-01-25T08:06:39.773Z,8.47
2023-01-25T08:09:09.980Z,9.00
2023-01-25T08:11:39.528Z,9.67
2023-01-25T08:14:08.663Z,10.20
2023-01-25T08:16:36.324Z,9.23
2023-01-25T08:19:04.862Z,10.17
2023-01-25T08:21:34.193Z,9.33
2023-01-25T08:24:05.322Z,10.80
2023-01-25T08:26:34.102Z,10.63
2023-01-25T08:29:04.479Z,10.00
2023-01-25T08:31:34.484Z,12.17
2023-01-25T08:34:03.141Z,10.53
2023-01-25T08:36:31.440Z,9.70
2023-01-25T08:39:01.862Z,10.00
2023-01-25T08:41:32.637Z,9.90
2023-01-25T08:44:00.704Z,9.70
2023-01-25T08:46:33.098Z,10.80
2023-01-25T08:49:03.099Z,10.13
2023-01-25T08:51:32.541Z,11.27
2023-01-25T08:54:03.847Z,10.87
2023-01-25T08:56:32.116Z,10.13
2023-01-25T08:58:59.749Z,11.03
2023-01-25T09:01:29.172Z,11.20
2023-01-25T09:03:57.053Z,11.40
2023-01-25T09:06:25.557Z,11.53
2023-01-25T09:08:53.161Z,10.10
2023-01-25T09:11:23.283Z,10.60
2023-01-25T09:13:51.992Z,11.07
2023-01-25T09:16:28.992Z,9.70
2023-01-25T09:19:00.719Z,11.90
2023-01-25T09:21:29.891Z,12.20
2023-01-25T09:24:07.276Z,11.77
2023-01-25T09:26:37.839Z,10.70
2023-01-25T09:29:07.848Z,11.10
2023-01-25T09:31:37.088Z,11.27
2023-01-25T09:34:16.360Z,11.40
2023-01-25T09:36:44.152Z,11.73
2023-01-25T09:39:15.215Z,11.33
2023-01-25T09:42:20.384Z,10.87
2023-01-25T09:45:01.662Z,10.70
2023-01-25T09:47:34.645Z,9.20
2023-01-25T09:50:18.680Z,8.80
2023-01-25T09:53:21.447Z,11.10
2023-01-25T09:55:55.720Z,10.13
2023-01-25T09:58:29.445Z,8.30
2023-01-25T10:01:14.446Z,10.90
2023-01-25T10:03:49.692Z,10.10
2023-01-25T10:06:23.622Z,8.93
2023-01-25T10:09:02.500Z,10.53
2023-01-25T10:11:32.381Z,10.33
2023-01-25T10:14:01.027Z,9.70
2023-01-25T10:16:33.424Z,9.70
2023-01-25T10:19:13.495Z,10.73
2023-01-25T10:21:46.817Z,10.63
2023-01-25T10:24:53.446Z,9.70
2023-01-25T10:27:29.683Z,8.67
2023-01-25T10:29:59.810Z,10.03
2023-01-25T10:32:32.578Z,10.77
2023-01-25T10:35:19.751Z,9.87
2023-01-25T10:37:55.520Z,9.53
2023-01-25T10:40:28.196Z,9.60
2023-01-25T10:43:04.320Z,9.83
2023-01-25T10:45:32.753Z,9.67
2023-01-25T10:48:06.908Z,9.10
2023-01-25T10:50:50.066Z,9.03
2023-01-25T10:53:26.056Z,9.63
2023-01-25T10:56:02.079Z,9.20
2023-01-25T10:58:32.262Z,8.93
2023-01-25T11:01:01.187Z,8.80
2023-01-25T11:03:37.589Z,10.00
2023-01-25T11:06:06.405Z,9.90
2023-01-25T11:08:38.536Z,9.40
2023-01-25T11:11:27.956Z,8.47
2023-01-25T11:13:56.365Z,8.83
2023-01-25T11:16:32.275Z,8.90
2023-01-25T11:19:02.757Z,10.80
2023-01-25T11:21:32.456Z,9.40
2023-01-25T11:24:18.709Z,9.60
2023-01-25T11:26:46.976Z,9.80
2023-01-25T11:29:17.568Z,11.23
2023-01-25T11:31:47.967Z,10.80
2023-01-25T11:34:17.817Z,11.07
2023-01-25T11:36:58.533Z,10.83
2023-01-25T11:39:39.388Z,10.93
2023-01-25T11:42:22.496Z,10.83
2023-01-25T11:45:35.062Z,10.57
2023-01-25T11:48:21.683Z,9.37
2023-01-25T11:50:57.463Z,9.53
2023-01-25T11:53:36.345Z,9.97
2023-01-25T11:56:16.570Z,9.67
2023-01-25T11:59:00.096Z,9.87
2023-01-25T12:01:37.198Z,10.60
2023-01-25T12:04:24.618Z,10.70
2023-01-25T12:07:00.430Z,10.20
2023-01-25T12:09:47.455Z,10.80
2023-01-25T12:12:30.620Z,10.73
2023-01-25T12:15:19.795Z,10.40
2023-01-25T12:18:07.092Z,11.10
2023-01-25T12:21:01.597Z,10.10
2023-01-25T12:23:41.144Z,11.30
2023-01-25T12:26:21.423Z,10.13
2023-01-25T12:28:54.868Z,9.67
2023-01-25T12:31:28.477Z,11.50
2023-01-25T12:34:03.428Z,11.70
2023-01-25T12:36:35.933Z,10.90
2023-01-25T12:39:05.350Z,11.57
2023-01-25T12:41:41.283Z,11.77
2023-01-25T12:44:20.092Z,12.13
2023-01-25T12:46:56.495Z,12.40
2023-01-25T12:49:32.009Z,10.60
2023-01-25T12:52:12.637Z,11.73
2023-01-25T12:55:01.329Z,12.87
2023-01-25T13:00:40.420Z,10.40
2023-01-25T13:03:24.576Z,11.77
2023-01-25T13:06:04.351Z,11.53
2023-01-25T13:08:59.911Z,11.47
2023-01-25T13:11:36.151Z,10.63
2023-01-25T13:14:33.390Z,11.13
2023-01-25T13:17:24.959Z,11.37
2023-01-25T13:19:57.614Z,11.10
2023-01-25T13:23:04.456Z,12.30
2023-01-25T13:25:37.446Z,12.27
2023-01-25T13:28:43.225Z,10.10
2023-01-25T13:31:12.554Z,10.43
2023-01-25T13:33:46.996Z,10.70
2023-01-25T13:36:47.248Z,10.73
2023-01-25T13:39:44.025Z,11.80
2023-01-25T13:42:24.533Z,10.17
2023-01-25T13:58:22.770Z,10.97
2023-01-25T14:00:54.469Z,12.43
2023-01-25T14:03:26.779Z,11.37
2023-01-25T14:05:57.787Z,12.70
2023-01-25T14:08:27.438Z,13.77
2023-01-25T14:10:58.989Z,11.60
2023-01-25T14:13:26.769Z,11.50
2023-01-25T14:15:57.739Z,9.27
2023-01-25T14:18:33.191Z,9.73
2023-01-25T14:21:17.644Z,12.97
2023-01-25T14:23:46.632Z,11.63
2023-01-25T14:26:21.892Z,11.90
2023-01-25T14:29:01.207Z,11.93
2023-01-25T14:31:34.045Z,10.70
2023-01-25T14:34:04.432Z,9.43
2023-01-25T14:36:34.801Z,9.57
2023-01-25T14:39:04.837Z,10.93
2023-01-25T14:41:37.191Z,11.00
2023-01-25T14:44:10.601Z,9.17
2023-01-25T14:46:40.669Z,10.80
2023-01-25T14:49:10.566Z,10.47
2023-01-25T14:51:44.395Z,9.60
2023-01-25T14:54:17.062Z,9.00
2023-01-25T14:56:49.815Z,10.07
2023-01-25T14:59:37.102Z,10.47
2023-01-25T15:02:17.927Z,8.87
2023-01-25T15:04:57.255Z,9.80
2023-01-25T15:07:46.611Z,9.50
2023-01-25T15:10:20.150Z,8.97
2023-01-25T15:13:17.887Z,9.87
2023-01-25T15:15:55.360Z,8.20
2023-01-25T15:18:43.957Z,9.33
2023-01-25T15:21:13.657Z,9.60
2023-01-25T15:23:42.766Z,9.53
2023-01-25T15:26:20.317Z,8.50
2023-01-25T15:28:50.336Z,8.63
2023-01-25T15:31:19.985Z,8.43
2023-01-25T15:33:48.720Z,9.40
2023-01-25T15:36:17.873Z,8.47
2023-01-25T15:38:46.494Z,8.70
2023-01-25T15:41:15.282Z,10.20
2023-01-25T15:43:43.468Z,8.27
2023-01-25T15:46:18.968Z,9.93
2023-01-25T15:48:48.313Z,10.30
2023-01-25T15:51:17.910Z,9.90
2023-01-25T15:53:46.749Z,10.20
2023-01-25T15:56:18.156Z,8.83
2023-01-25T15:58:48.550Z,8.60
2023-01-25T16:01:17.884Z,9.43
2023-01-25T16:03:45.720Z,9.33
2023-01-25T16:06:40.011Z,8.47
2023-01-25T16:09:16.075Z,9.00
2023-01-25T16:11:44.711Z,9.70
2023-01-25T16:14:12.926Z,10.53
2023-01-25T16:16:45.903Z,9.83
2023-01-25T16:19:15.174Z,11.20
2023-01-25T16:21:43.290Z,8.67
2023-01-25T16:24:12.903Z,8.87
2023-01-25T16:26:45.027Z,9.63
2023-01-25T16:29:13.722Z,9.73
2023-01-25T16:31:43.022Z,8.30
2023-01-25T16:34:10.969Z,8.23
2023-01-25T16:36:39.740Z,9.63
2023-01-25T16:39:10.478Z,7.43
2023-01-25T16:41:38.839Z,9.40
2023-01-25T16:44:06.575Z,7.90
2023-01-25T16:46:34.871Z,7.50
2023-01-25T16:49:07.064Z,7.17
2023-01-25T16:51:36.129Z,7.13
2023-01-25T16:54:04.130Z,8.00
2023-01-25T16:56:34.551Z,7.93
2023-01-25T16:59:05.703Z,6.67
2023-01-25T17:01:35.491Z,6.97
2023-01-25T17:04:05.133Z,8.13
2023-01-25T17:06:34.416Z,6.80
2023-01-25T17:09:12.687Z,6.77
2023-01-25T17:11:49.091Z,6.97
2023-01-25T17:14:19.224Z,6.47
2023-01-25T17:16:48.578Z,8.30
2023-01-25T17:19:19.079Z,6.77
2023-01-25T17:21:47.947Z,7.50
2023-01-25T17:24:17.659Z,7.57
2023-01-25T17:26:45.905Z,8.73
2023-01-25T17:29:13.848Z,10.20
2023-01-25T17:31:44.594Z,9.27
2023-01-25T17:34:15.950Z,9.37
2023-01-25T17:36:46.093Z,7.90
2023-01-25T17:39:15.971Z,7.63
2023-01-25T17:41:44.479Z,8.70
2023-01-25T17:44:12.163Z,7.57
2023-01-25T17:46:39.869Z,7.83
2023-01-25T17:49:09.680Z,8.47
2023-01-25T17:51:37.677Z,8.20
2023-01-25T17:54:07.340Z,8.93
2023-01-25T17:56:36.258Z,8.53
2023-01-25T17:59:08.743Z,8.60
2023-01-25T18:01:37.378Z,9.37
2023-01-25T18:04:08.758Z,9.50
2023-01-25T18:06:39.482Z,9.27
2023-01-25T18:09:08.838Z,9.10
2023-01-25T18:11:40.278Z,8.30
2023-01-25T18:14:09.621Z,6.13
2023-01-25T18:16:41.669Z,8.27
2023-01-25T18:19:10.151Z,6.30
2023-01-25T18:21:39.261Z,6.63
2023-01-25T18:24:25.500Z,7.50
2023-01-25T18:26:59.955Z,8.03
2023-01-25T18:29:46.629Z,7.70
2023-01-25T18:32:15.450Z,6.00
2023-01-25T18:34:44.034Z,7.50
2023-01-25T18:37:21.830Z,6.70
2023-01-25T18:39:53.311Z,7.07
2023-01-25T18:42:22.231Z,7.13
2023-01-25T18:44:51.140Z,6.40
2023-01-25T18:47:20.732Z,8.80
2023-01-25T18:49:49.891Z,8.23
2023-01-25T18:52:19.004Z,7.80
2023-01-25T18:54:56.231Z,6.53
2023-01-25T18:57:25.240Z,7.47
2023-01-25T18:59:53.830Z,7.30
2023-01-25T19:02:23.269Z,6.60
2023-01-25T19:04:51.349Z,6.87
2023-01-25T19:07:18.918Z,7.90
2023-01-25T19:09:48.227Z,6.97
2023-01-25T19:12:16.105Z,7.47
2023-01-25T19:14:45.143Z,6.90
2023-01-25T19:17:12.831Z,9.07
2023-01-25T19:19:42.440Z,8.57
2023-01-25T19:22:10.160Z,8.00
2023-01-25T19:24:38.373Z,8.37
2023-01-25T19:27:05.991Z,7.50
2023-01-25T19:29:34.205Z,8.23
2023-01-25T19:32:03.686Z,7.27
2023-01-25T19:34:31.369Z,7.37
2023-01-25T19:36:59.542Z,7.23
2023-01-25T19:39:27.226Z,7.83
2023-01-25T19:41:56.009Z,6.67
2023-01-25T19:44:24.839Z,7.67
2023-01-25T19:46:52.957Z,7.30
2023-01-25T19:49:22.860Z,7.97
2023-01-25T19:51:54.178Z,7.03
2023-01-25T19:54:23.981Z,7.40
2023-01-25T19:56:52.910Z,6.23
2023-01-25T19:59:26.886Z,7.27
2023-01-25T20:01:55.011Z,7.20
2023-01-25T20:04:25.168Z,5.37
2023-01-25T20:06:54.394Z,6.70
2023-01-25T20:09:27.520Z,7.33
2023-01-25T20:11:57.017Z,6.70
2023-01-25T20:14:24.899Z,7.50
2023-01-25T20:16:52.965Z,6.27
2023-01-25T20:19:20.998Z,8.37
2023-01-25T20:21:50.632Z,7.40
2023-01-25T20:24:18.515Z,7.90
2023-01-25T20:26:47.401Z,6.90
2023-01-25T20:29:15.168Z,7.83
2023-01-25T20:31:44.739Z,7.77
2023-01-25T20:34:15.405Z,8.70
2023-01-25T20:36:44.892Z,7.10
2023-01-25T20:39:17.628Z,7.40
2023-01-25T20:41:45.748Z,7.03
2023-01-25T20:44:15.478Z,7.23
2023-01-25T20:46:43.948Z,6.80
2023-01-25T20:49:16.566Z,7.50
2023-01-25T20:51:44.588Z,7.63
2023-01-25T20:54:14.686Z,7.67
2023-01-25T20:56:43.181Z,8.20
2023-01-25T20:59:11.320Z,8.50
2023-01-25T21:01:39.556Z,7.37
2023-01-25T21:04:09.703Z,7.27
2023-01-25T21:06:38.772Z,8.10
2023-01-25T21:09:06.739Z,7.13
2023-01-25T21:11:36.699Z,7.40
2023-01-25T21:14:04.667Z,7.83
2023-01-25T21:16:32.947Z,7.77
2023-01-25T21:19:05.991Z,8.33
2023-01-25T21:21:34.861Z,7.00
2023-01-25T21:24:05.335Z,8.27
2023-01-25T21:26:37.429Z,7.27
2023-01-25T21:29:06.380Z,8.57
2023-01-25T21:31:37.719Z,8.43
2023-01-25T21:34:06.134Z,7.47
2023-01-25T21:36:34.917Z,9.90
2023-01-25T21:39:03.621Z,9.20
2023-01-25T21:41:33.725Z,8.73
2023-01-25T21:44:21.457Z,8.20
2023-01-25T21:47:16.475Z,8.83
2023-01-25T21:49:55.228Z,8.83
2023-01-25T21:52:23.853Z,8.43
2023-01-25T21:54:51.573Z,8.00
2023-01-25T21:57:20.049Z,8.30
2023-01-25T21:59:49.852Z,8.70
2023-01-25T22:02:18.508Z,9.17
2023-01-25T22:04:47.067Z,8.23
2023-01-25T22:07:14.791Z,9.33
2023-01-25T22:09:43.040Z,8.40
2023-01-25T22:12:12.314Z,9.10
2023-01-25T22:14:41.528Z,8.90
2023-01-25T22:17:12.242Z,7.37
2023-01-25T22:19:40.165Z,8.20
2023-01-25T22:22:08.426Z,7.07
2023-01-25T22:24:36.038Z,8.93
2023-01-25T22:27:26.069Z,8.30
2023-01-25T22:29:53.681Z,8.20
2023-01-25T22:32:23.294Z,8.23
2023-01-25T22:34:50.937Z,7.47
2023-01-25T22:37:19.717Z,9.40
2023-01-25T22:39:48.349Z,9.03
2023-01-25T22:42:16.034Z,8.47
2023-01-25T22:44:43.642Z,7.93
2023-01-25T22:47:11.352Z,8.83
2023-01-25T22:49:41.173Z,8.17
2023-01-25T22:52:09.382Z,8.23
2023-01-25T22:54:37.836Z,9.20
2023-01-25T22:57:05.857Z,9.23
2023-01-25T22:59:33.926Z,8.50
2023-01-25T23:02:01.956Z,7.77
2023-01-25T23:04:30.866Z,8.80
2023-01-25T23:07:12.064Z,7.83
2023-01-25T23:09:41.213Z,8.70
2023-01-25T23:12:09.624Z,8.90
2023-01-25T23:14:52.930Z,8.60
2023-01-25T23:17:39.696Z,8.60
2023-01-25T23:20:10.372Z,8.53
2023-01-25T23:22:40.263Z,8.20
2023-01-25T23:25:10.685Z,8.73
2023-01-25T23:27:39.016Z,8.97
2023-01-25T23:30:09.382Z,9.30
2023-01-25T23:32:38.078Z,8.77
2023-01-25T23:35:07.784Z,9.20
2023-01-25T23:37:35.423Z,8.70
2023-01-25T23:40:09.828Z,8.10
2023-01-25T23:42:38.027Z,9.03
2023-01-25T23:45:08.124Z,8.50
2023-01-25T23:47:36.121Z,9.03
2023-01-25T23:50:04.401Z,8.47
2023-01-25T23:52:32.486Z,9.47
2023-01-25T23:55:00.951Z,8.97
2023-01-25T23:57:29.961Z,9.57
2023-01-25T23:59:57.987Z,8.27
